Time;durP1;ratioP1;P1;durP2;ratioP2;P2;SDS_P1;SDS_P2;PMS_P1;PMS_P2;Temp;Humidity;BMP_temperature;BMP_pressure;BME280_temperature;BME280_humidity;BME280_pressure;Samples;Min_cycle;Max_cycle;Signal;HPM_P1;HPM_P2
2022/10/22 00:00:47;;;;;;;44.65;26.98;;;;;;;;;;5071575;28;20048;-73
2022/10/22 00:03:52;;;;;;;35.00;25.80;;;;;;;;;;5071474;28;20044;-73
2022/10/22 00:06:56;;;;;;;36.10;25.92;;;;;;;;;;5071554;28;20507;-73
2022/10/22 00:10:00;;;;;;;34.35;26.02;;;;;;;;;;5071324;28;20392;-73
2022/10/22 00:13:05;;;;;;;38.42;26.15;;;;;;;;;;5071129;28;20071;-73
2022/10/22 00:16:09;;;;;;;35.03;24.67;;;;;;;;;;5071405;28;20047;-73
2022/10/22 00:19:14;;;;;;;33.75;24.83;;;;;;;;;;5071085;28;20051;-73
2022/10/22 00:22:18;;;;;;;31.70;23.98;;;;;;;;;;5071503;28;20260;-73
2022/10/22 00:25:23;;;;;;;34.92;24.13;;;;;;;;;;5071441;28;20043;-73
2022/10/22 00:28:27;;;;;;;36.28;23.40;;;;;;;;;;5071000;28;20047;-73
2022/10/22 00:31:32;;;;;;;31.60;23.33;;;;;;;;;;5070887;28;20134;-73
2022/10/22 00:34:36;;;;;;;33.28;23.10;;;;;;;;;;5070987;28;20067;-73
2022/10/22 00:37:41;;;;;;;37.10;25.38;;;;;;;;;;5070859;28;20070;-73
2022/10/22 00:40:45;;;;;;;31.10;22.73;;;;;;;;;;5071040;28;20202;-71
2022/10/22 00:43:53;;;;;;;33.88;23.65;;;;;;;;;;5070072;28;20052;-72
2022/10/22 00:46:57;;;;;;;36.30;24.17;;;;;;;;;;5071098;28;20048;-73
2022/10/22 00:50:03;;;;;;;33.78;22.52;;;;;;;;;;5070909;28;20044;-73
2022/10/22 00:53:12;;;;;;;31.38;22.67;;;;;;;;;;5070748;28;20059;-73
2022/10/22 00:56:17;;;;;;;36.60;24.60;;;;;;;;;;5075020;28;20048;-73
2022/10/22 00:59:22;;;;;;;29.80;23.23;;;;;;;;;;5075014;28;20051;-73
2022/10/22 01:02:26;;;;;;;36.63;23.80;;;;;;;;;;5075093;28;20044;-73
2022/10/22 01:05:33;;;;;;;33.85;24.92;;;;;;;;;;5074932;28;20043;-73
2022/10/22 01:08:36;;;;;;;34.55;24.15;;;;;;;;;;5074678;28;20461;-73
2022/10/22 01:11:51;;;;;;;35.42;23.65;;;;;;;;;;5075014;28;20059;-73
2022/10/22 01:14:58;;;;;;;34.95;23.67;;;;;;;;;;5074835;28;20531;-73
2022/10/22 01:18:05;;;;;;;34.53;25.40;;;;;;;;;;5074395;28;20039;-73
2022/10/22 01:21:14;;;;;;;34.72;24.88;;;;;;;;;;5074775;28;20111;-73
2022/10/22 01:24:35;;;;;;;34.50;24.90;;;;;;;;;;5074729;28;20036;-73
2022/10/22 01:27:43;;;;;;;42.00;26.73;;;;;;;;;;5074343;28;20047;-73
2022/10/22 01:30:48;;;;;;;38.05;25.42;;;;;;;;;;5073999;28;20051;-73
2022/10/22 01:33:54;;;;;;;34.13;24.48;;;;;;;;;;5074365;28;20048;-73
2022/10/22 01:36:58;;;;;;;37.45;24.70;;;;;;;;;;5073381;28;20052;-73
2022/10/22 01:40:03;;;;;;;38.03;24.60;;;;;;;;;;5074369;28;20047;-73
2022/10/22 01:43:09;;;;;;;30.58;22.73;;;;;;;;;;5073867;28;20043;-73
2022/10/22 01:46:13;;;;;;;34.65;24.10;;;;;;;;;;5074418;28;20599;-73
2022/10/22 01:49:25;;;;;;;34.63;24.05;;;;;;;;;;5074110;28;20392;-73
2022/10/22 01:52:45;;;;;;;31.60;23.88;;;;;;;;;;5073084;28;20044;-73
2022/10/22 01:56:04;;;;;;;37.42;25.30;;;;;;;;;;5074044;28;20078;-73
2022/10/22 01:59:33;;;;;;;33.40;24.30;;;;;;;;;;5073561;28;20036;-73
2022/10/22 02:02:38;;;;;;;37.15;25.50;;;;;;;;;;5073965;28;20051;-73
2022/10/22 02:05:47;;;;;;;37.65;24.50;;;;;;;;;;5073963;28;20051;-73
2022/10/22 02:08:52;;;;;;;38.47;25.40;;;;;;;;;;5073844;28;20043;-73
2022/10/22 02:11:58;;;;;;;42.45;25.27;;;;;;;;;;5073673;28;20047;-73
2022/10/22 02:15:03;;;;;;;42.05;27.13;;;;;;;;;;5073327;28;20198;-72
2022/10/22 02:18:08;;;;;;;43.83;28.77;;;;;;;;;;5073634;28;20052;-73
2022/10/22 02:21:13;;;;;;;41.58;28.02;;;;;;;;;;5073238;28;20044;-72
2022/10/22 02:24:18;;;;;;;39.67;27.13;;;;;;;;;;5073379;28;20040;-72
2022/10/22 02:27:29;;;;;;;38.10;26.42;;;;;;;;;;5073561;28;20051;-73
2022/10/22 02:30:35;;;;;;;42.07;26.90;;;;;;;;;;5073135;28;20077;-73
2022/10/22 02:33:45;;;;;;;36.50;26.50;;;;;;;;;;5073013;28;20306;-73
2022/10/22 02:36:50;;;;;;;32.92;25.02;;;;;;;;;;5073356;28;20044;-73
2022/10/22 02:39:55;;;;;;;35.80;26.00;;;;;;;;;;5072967;28;20106;-73
2022/10/22 02:42:59;;;;;;;39.95;26.13;;;;;;;;;;5073470;28;20052;-72
2022/10/22 02:46:04;;;;;;;39.60;26.35;;;;;;;;;;5073366;28;20043;-72
2022/10/22 02:49:08;;;;;;;35.50;26.50;;;;;;;;;;5073190;28;20044;-73
2022/10/22 02:52:12;;;;;;;33.75;25.23;;;;;;;;;;5073876;28;20048;-73
2022/10/22 02:55:17;;;;;;;35.05;24.70;;;;;;;;;;5073357;28;20059;-72
2022/10/22 02:58:21;;;;;;;36.38;25.80;;;;;;;;;;5073279;28;20044;-73
2022/10/22 03:01:26;;;;;;;36.38;24.88;;;;;;;;;;5073282;28;20035;-73
2022/10/22 03:04:30;;;;;;;40.80;26.73;;;;;;;;;;5073419;28;20044;-73
2022/10/22 03:07:34;;;;;;;35.92;25.90;;;;;;;;;;5072586;28;20527;-73
2022/10/22 03:10:38;;;;;;;31.40;24.67;;;;;;;;;;5072718;28;20486;-74
2022/10/22 03:13:43;;;;;;;37.17;25.83;;;;;;;;;;5072361;28;20063;-73
2022/10/22 03:16:47;;;;;;;37.05;26.02;;;;;;;;;;5072948;28;20044;-73
2022/10/22 03:19:51;;;;;;;36.63;26.13;;;;;;;;;;5072670;28;20076;-73
2022/10/22 03:22:57;;;;;;;34.78;26.27;;;;;;;;;;5072391;28;20048;-73
2022/10/22 03:26:01;;;;;;;34.63;26.40;;;;;;;;;;5072253;28;20043;-73
2022/10/22 03:29:05;;;;;;;34.30;25.02;;;;;;;;;;5072262;28;20099;-73
2022/10/22 03:32:10;;;;;;;36.13;24.77;;;;;;;;;;5072121;28;20048;-73
2022/10/22 03:35:17;;;;;;;33.42;24.45;;;;;;;;;;5072290;28;20052;-73
2022/10/22 03:38:23;;;;;;;36.20;24.42;;;;;;;;;;5071045;28;20043;-73
2022/10/22 03:41:27;;;;;;;37.97;26.05;;;;;;;;;;5071853;28;20044;-74
2022/10/22 03:44:32;;;;;;;35.20;25.10;;;;;;;;;;5072110;28;20040;-74
2022/10/22 03:47:36;;;;;;;36.72;25.55;;;;;;;;;;5071998;28;20067;-73
2022/10/22 03:50:41;;;;;;;37.47;25.48;;;;;;;;;;5071638;28;20043;-74
2022/10/22 03:53:45;;;;;;;36.50;26.60;;;;;;;;;;5071792;28;20051;-73
2022/10/22 03:56:49;;;;;;;37.28;24.33;;;;;;;;;;5071789;28;20110;-74
2022/10/22 03:59:53;;;;;;;34.58;25.25;;;;;;;;;;5072004;28;20047;-74
2022/10/22 04:02:58;;;;;;;40.70;25.95;;;;;;;;;;5071466;28;20035;-74
2022/10/22 04:06:03;;;;;;;31.17;24.05;;;;;;;;;;5071580;28;20047;-74
2022/10/22 04:09:08;;;;;;;37.80;25.33;;;;;;;;;;5071375;28;20400;-73
2022/10/22 04:12:12;;;;;;;35.35;24.83;;;;;;;;;;5071631;28;20194;-74
2022/10/22 04:15:16;;;;;;;35.03;24.75;;;;;;;;;;5071753;28;20408;-73
2022/10/22 04:18:22;;;;;;;31.67;24.13;;;;;;;;;;5071417;28;20051;-74
2022/10/22 04:21:26;;;;;;;31.27;23.77;;;;;;;;;;5071982;28;20067;-74
2022/10/22 04:24:31;;;;;;;37.38;25.00;;;;;;;;;;5071401;28;20043;-74
2022/10/22 04:27:36;;;;;;;36.95;24.40;;;;;;;;;;5071223;28;20051;-73
2022/10/22 04:30:40;;;;;;;35.22;24.25;;;;;;;;;;5070603;28;20416;-73
2022/10/22 04:33:44;;;;;;;37.42;25.60;;;;;;;;;;5071541;28;20060;-73
2022/10/22 04:36:49;;;;;;;35.90;26.27;;;;;;;;;;5071603;28;20051;-73
2022/10/22 04:39:53;;;;;;;39.33;25.55;;;;;;;;;;5070969;28;20048;-73
2022/10/22 04:42:57;;;;;;;40.25;26.73;;;;;;;;;;5070309;28;20044;-73
2022/10/22 04:46:02;;;;;;;38.33;26.42;;;;;;;;;;5071171;28;20408;-73
2022/10/22 04:49:06;;;;;;;35.58;26.60;;;;;;;;;;5070821;28;20036;-74
2022/10/22 04:52:11;;;;;;;36.63;25.60;;;;;;;;;;5071315;28;20051;-74
2022/10/22 04:55:15;;;;;;;33.13;23.65;;;;;;;;;;5070914;28;20055;-73
2022/10/22 04:58:20;;;;;;;37.63;24.65;;;;;;;;;;5070766;28;20044;-74
2022/10/22 05:01:28;;;;;;;34.08;22.67;;;;;;;;;;5070979;28;20043;-71
2022/10/22 05:04:33;;;;;;;26.35;21.23;;;;;;;;;;5071164;28;20041;-73
2022/10/22 05:07:37;;;;;;;30.15;21.55;;;;;;;;;;5070875;28;20040;-73
2022/10/22 05:10:41;;;;;;;31.15;22.08;;;;;;;;;;5071145;28;20043;-72
2022/10/22 05:13:46;;;;;;;28.45;21.70;;;;;;;;;;5070871;28;20404;-73
2022/10/22 05:16:51;;;;;;;33.22;22.50;;;;;;;;;;5071211;28;20392;-73
2022/10/22 05:19:55;;;;;;;33.95;21.83;;;;;;;;;;5071002;28;20039;-73
2022/10/22 05:23:01;;;;;;;31.15;22.52;;;;;;;;;;5070736;28;20507;-73
2022/10/22 05:26:06;;;;;;;37.17;23.20;;;;;;;;;;5070858;28;20049;-73
2022/10/22 05:29:11;;;;;;;37.30;24.77;;;;;;;;;;5070982;28;20103;-73
2022/10/22 05:32:15;;;;;;;38.53;25.92;;;;;;;;;;5070485;28;20044;-74
2022/10/22 05:35:19;;;;;;;42.03;25.45;;;;;;;;;;5069641;28;20051;-73
2022/10/22 05:38:24;;;;;;;33.75;24.70;;;;;;;;;;5069963;28;20392;-73
2022/10/22 05:41:29;;;;;;;39.55;27.63;;;;;;;;;;5071143;28;20047;-73
2022/10/22 05:44:34;;;;;;;38.10;26.55;;;;;;;;;;5074869;28;20388;-72
2022/10/22 05:47:38;;;;;;;43.90;28.25;;;;;;;;;;5074195;28;20047;-73
2022/10/22 05:50:45;;;;;;;48.50;28.38;;;;;;;;;;5074458;28;20066;-73
2022/10/22 05:53:57;;;;;;;44.05;29.13;;;;;;;;;;5074689;28;20518;-73
2022/10/22 05:57:01;;;;;;;45.35;29.48;;;;;;;;;;5074331;28;20043;-67
2022/10/22 06:00:06;;;;;;;38.92;28.63;;;;;;;;;;5074222;28;20047;-67
2022/10/22 06:03:10;;;;;;;38.53;25.83;;;;;;;;;;5073822;28;20039;-67
2022/10/22 06:06:20;;;;;;;38.55;24.65;;;;;;;;;;5073997;28;20301;-67
2022/10/22 06:09:26;;;;;;;35.85;22.52;;;;;;;;;;5073821;28;20051;-68
2022/10/22 06:12:30;;;;;;;39.35;24.42;;;;;;;;;;5074107;28;20416;-68
2022/10/22 06:15:34;;;;;;;44.33;25.98;;;;;;;;;;5073433;28;20052;-68
2022/10/22 06:18:39;;;;;;;35.50;25.00;;;;;;;;;;5073605;28;20388;-68
2022/10/22 06:21:43;;;;;;;36.90;24.52;;;;;;;;;;5073216;28;20242;-67
2022/10/22 06:24:48;;;;;;;30.80;23.80;;;;;;;;;;5073162;28;20043;-68
2022/10/22 06:27:52;;;;;;;31.00;20.40;;;;;;;;;;5073144;28;20047;-67
2022/10/22 06:30:57;;;;;;;33.13;23.42;;;;;;;;;;5073070;28;20052;-69
2022/10/22 06:34:06;;;;;;;33.83;23.15;;;;;;;;;;5073413;28;20055;-67
2022/10/22 06:37:11;;;;;;;37.67;23.45;;;;;;;;;;5073519;28;20111;-67
2022/10/22 06:40:17;;;;;;;36.08;24.15;;;;;;;;;;5073174;28;20031;-67
2022/10/22 06:43:21;;;;;;;39.17;24.58;;;;;;;;;;5073049;28;20051;-68
2022/10/22 06:46:26;;;;;;;35.40;24.23;;;;;;;;;;5072883;28;20302;-67
2022/10/22 06:49:30;;;;;;;39.78;24.73;;;;;;;;;;5073163;28;20052;-70
2022/10/22 06:52:34;;;;;;;40.70;24.40;;;;;;;;;;5072292;28;20035;-68
2022/10/22 06:55:39;;;;;;;32.53;23.42;;;;;;;;;;5072656;28;20044;-70
2022/10/22 06:58:43;;;;;;;36.92;24.25;;;;;;;;;;5072877;28;20055;-68
2022/10/22 07:01:48;;;;;;;36.47;24.75;;;;;;;;;;5072790;28;20047;-68
2022/10/22 07:04:52;;;;;;;26.20;20.17;;;;;;;;;;5072655;28;20059;-69
2022/10/22 07:07:57;;;;;;;34.95;21.35;;;;;;;;;;5072154;28;20051;-68
2022/10/22 07:11:07;;;;;;;30.33;19.63;;;;;;;;;;5072331;28;20408;-70
2022/10/22 07:14:12;;;;;;;23.83;18.80;;;;;;;;;;5072167;28;20063;-67
2022/10/22 07:17:16;;;;;;;25.73;17.15;;;;;;;;;;5072100;28;20047;-70
2022/10/22 07:20:20;;;;;;;28.38;22.10;;;;;;;;;;5072515;28;20056;-68
2022/10/22 07:23:25;;;;;;;36.65;23.30;;;;;;;;;;5071853;28;20504;-68
2022/10/22 07:26:31;;;;;;;23.35;18.60;;;;;;;;;;5072354;28;20044;-68
2022/10/22 07:29:36;;;;;;;27.75;20.65;;;;;;;;;;5071872;28;20501;-69
2022/10/22 07:32:40;;;;;;;31.75;23.70;;;;;;;;;;5072310;28;20435;-71
2022/10/22 07:35:44;;;;;;;21.98;17.38;;;;;;;;;;5072129;28;20479;-68
2022/10/22 07:38:52;;;;;;;34.00;25.42;;;;;;;;;;5071575;28;20403;-67
2022/10/22 07:41:56;;;;;;;35.42;27.17;;;;;;;;;;5071890;28;20391;-67
2022/10/22 07:45:01;;;;;;;36.63;27.38;;;;;;;;;;5071796;28;20044;-67
2022/10/22 07:48:05;;;;;;;36.80;27.38;;;;;;;;;;5059069;28;20035;-68
2022/10/22 07:51:09;;;;;;;30.48;21.08;;;;;;;;;;5071695;28;20040;-69
2022/10/22 07:54:14;;;;;;;27.10;22.15;;;;;;;;;;5072246;28;20047;-70
2022/10/22 07:57:18;;;;;;;31.23;24.20;;;;;;;;;;5071834;28;20048;-72
2022/10/22 08:00:22;;;;;;;32.28;25.48;;;;;;;;;;5071317;28;20032;-68
2022/10/22 08:03:27;;;;;;;33.78;24.40;;;;;;;;;;5071215;28;20044;-68
2022/10/22 08:06:32;;;;;;;27.27;23.42;;;;;;;;;;5072021;28;20039;-70
2022/10/22 08:09:36;;;;;;;34.42;25.77;;;;;;;;;;5070478;28;20051;-69
2022/10/22 08:12:41;;;;;;;30.52;25.63;;;;;;;;;;5069984;28;20047;-69
2022/10/22 08:15:46;;;;;;;30.15;21.98;;;;;;;;;;5068848;28;20060;-70
2022/10/22 08:18:50;;;;;;;29.58;21.55;;;;;;;;;;5071174;28;20039;-70
2022/10/22 08:21:54;;;;;;;34.03;26.67;;;;;;;;;;5071718;28;20317;-70
2022/10/22 08:24:59;;;;;;;23.83;19.77;;;;;;;;;;5070164;28;20048;-70
2022/10/22 08:28:03;;;;;;;30.52;19.52;;;;;;;;;;5070092;28;20409;-69
2022/10/22 08:31:08;;;;;;;34.47;20.38;;;;;;;;;;5070943;28;20063;-68
2022/10/22 08:34:13;;;;;;;35.05;19.88;;;;;;;;;;5070918;28;20071;-67
2022/10/22 08:37:18;;;;;;;21.05;13.82;;;;;;;;;;5069802;28;20047;-64
2022/10/22 08:40:29;;;;;;;18.52;14.07;;;;;;;;;;5070951;28;20055;-62
2022/10/22 08:43:56;;;;;;;23.35;16.20;;;;;;;;;;5069908;28;20044;-64
2022/10/22 08:47:10;;;;;;;14.75;12.85;;;;;;;;;;5070657;28;20043;-63
2022/10/22 08:50:17;;;;;;;25.17;15.23;;;;;;;;;;5070525;28;20049;-64
2022/10/22 08:53:40;;;;;;;16.88;12.43;;;;;;;;;;5070947;28;20039;-68
2022/10/22 08:56:47;;;;;;;12.95;9.88;;;;;;;;;;5070072;28;20064;-67
2022/10/22 08:59:54;;;;;;;16.00;10.50;;;;;;;;;;5070748;28;20048;-66
2022/10/22 09:03:05;;;;;;;15.43;11.50;;;;;;;;;;5071267;28;20055;-68
2022/10/22 09:06:30;;;;;;;14.57;10.40;;;;;;;;;;5070747;28;20074;-68
2022/10/22 09:09:38;;;;;;;16.85;10.65;;;;;;;;;;5070776;28;20133;-67
2022/10/22 09:12:42;;;;;;;11.45;10.13;;;;;;;;;;5070755;28;20071;-67
2022/10/22 09:16:10;;;;;;;14.05;11.60;;;;;;;;;;5070933;28;20667;-68
2022/10/22 09:19:38;;;;;;;21.60;13.68;;;;;;;;;;5075105;28;20380;-68
2022/10/22 09:22:42;;;;;;;17.35;11.65;;;;;;;;;;5074937;28;20060;-67
2022/10/22 09:25:48;;;;;;;19.23;12.77;;;;;;;;;;5073602;28;20043;-66
2022/10/22 09:28:52;;;;;;;15.82;11.50;;;;;;;;;;5074063;28;20036;-68
2022/10/22 09:31:57;;;;;;;23.63;12.18;;;;;;;;;;5073978;28;20051;-66
2022/10/22 09:35:01;;;;;;;18.25;9.27;;;;;;;;;;5073551;28;20055;-67
2022/10/22 09:38:07;;;;;;;12.05;7.40;;;;;;;;;;5073931;28;20036;-67
2022/10/22 09:41:11;;;;;;;12.35;8.25;;;;;;;;;;5074070;28;20044;-69
2022/10/22 09:44:16;;;;;;;12.52;7.85;;;;;;;;;;5074505;28;20400;-69
2022/10/22 09:47:27;;;;;;;12.90;8.02;;;;;;;;;;5074688;28;20036;-66
2022/10/22 09:50:42;;;;;;;12.55;7.93;;;;;;;;;;5074241;28;20036;-67
2022/10/22 09:53:47;;;;;;;8.27;7.38;;;;;;;;;;5073310;28;20047;-68
2022/10/22 09:56:59;;;;;;;10.20;7.03;;;;;;;;;;5073460;28;20476;-67
2022/10/22 10:00:07;;;;;;;9.35;6.50;;;;;;;;;;5073647;28;20048;-67
2022/10/22 10:03:21;;;;;;;11.23;7.28;;;;;;;;;;5073907;28;20044;-67
2022/10/22 10:06:31;;;;;;;8.85;7.13;;;;;;;;;;5073249;28;20036;-67
2022/10/22 10:09:35;;;;;;;10.15;7.18;;;;;;;;;;5073904;28;20036;-68
2022/10/22 10:12:45;;;;;;;9.18;6.43;;;;;;;;;;5074055;28;20051;-67
2022/10/22 10:16:01;;;;;;;15.63;8.35;;;;;;;;;;5072842;28;20049;-66
2022/10/22 10:19:13;;;;;;;12.60;7.85;;;;;;;;;;5074086;28;20033;-69
2022/10/22 10:22:23;;;;;;;13.57;8.27;;;;;;;;;;5074080;28;20044;-67
2022/10/22 10:25:35;;;;;;;10.52;6.63;;;;;;;;;;5073936;28;20382;-69
2022/10/22 10:29:04;;;;;;;7.57;6.43;;;;;;;;;;5073032;28;20045;-69
2022/10/22 10:32:27;;;;;;;15.68;7.32;;;;;;;;;;5072969;28;20048;-66
2022/10/22 10:35:58;;;;;;;10.27;6.50;;;;;;;;;;5073722;28;20055;-68
2022/10/22 10:39:07;;;;;;;17.73;6.45;;;;;;;;;;5073529;28;20032;-69
2022/10/22 10:42:27;;;;;;;8.48;6.45;;;;;;;;;;5072577;28;20040;-67
2022/10/22 10:45:38;;;;;;;11.73;6.53;;;;;;;;;;5073238;28;20480;-66
2022/10/22 10:48:44;;;;;;;20.52;8.45;;;;;;;;;;5072858;28;20044;-68
2022/10/22 10:51:53;;;;;;;16.20;9.00;;;;;;;;;;5073195;28;20365;-68
2022/10/22 10:55:21;;;;;;;18.98;8.68;;;;;;;;;;5073569;28;20044;-67
2022/10/22 10:58:48;;;;;;;67.28;11.05;;;;;;;;;;5073223;28;20396;-68
2022/10/22 11:01:55;;;;;;;16.33;7.28;;;;;;;;;;5064902;28;20059;-68
2022/10/22 11:05:00;;;;;;;10.60;7.05;;;;;;;;;;5073134;28;20036;-68
2022/10/22 11:08:09;;;;;;;13.70;7.50;;;;;;;;;;5072711;28;20286;-68
2022/10/22 11:11:37;;;;;;;15.95;7.95;;;;;;;;;;5072664;28;20040;-70
2022/10/22 11:14:49;;;;;;;13.45;8.50;;;;;;;;;;5072870;28;20048;-67
2022/10/22 11:17:56;;;;;;;18.90;8.88;;;;;;;;;;5072692;28;20040;-67
2022/10/22 11:21:27;;;;;;;21.20;8.80;;;;;;;;;;5072959;28;20040;-67
2022/10/22 11:24:34;;;;;;;9.07;7.32;;;;;;;;;;5072684;28;20404;-67
2022/10/22 11:27:41;;;;;;;12.75;8.30;;;;;;;;;;5072538;28;20040;-67
2022/10/22 11:30:48;;;;;;;7.28;6.57;;;;;;;;;;5072584;28;20044;-67
2022/10/22 11:33:59;;;;;;;8.25;6.95;;;;;;;;;;5072391;28;20029;-67
2022/10/22 11:37:04;;;;;;;10.40;7.90;;;;;;;;;;5072350;28;20476;-67
2022/10/22 11:40:31;;;;;;;9.00;7.80;;;;;;;;;;5071464;28;20040;-67
2022/10/22 11:44:00;;;;;;;8.77;7.25;;;;;;;;;;5072384;28;20044;-67
2022/10/22 11:47:33;;;;;;;11.38;8.10;;;;;;;;;;5072278;28;20036;-68
2022/10/22 11:50:47;;;;;;;10.63;9.07;;;;;;;;;;5070799;28;20032;-68
2022/10/22 11:53:55;;;;;;;10.07;7.78;;;;;;;;;;5072150;28;20052;-68
2022/10/22 11:57:16;;;;;;;10.55;8.20;;;;;;;;;;5071102;28;20059;-67
2022/10/22 12:00:34;;;;;;;11.27;8.65;;;;;;;;;;5071108;28;20032;-68
2022/10/22 12:03:42;;;;;;;9.07;7.25;;;;;;;;;;5071947;28;20047;-67
2022/10/22 12:06:59;;;;;;;8.35;7.32;;;;;;;;;;5059780;28;20040;-67
2022/10/22 12:10:18;;;;;;;12.15;7.82;;;;;;;;;;5071975;28;20044;-67
2022/10/22 12:13:25;;;;;;;14.88;8.48;;;;;;;;;;5072116;28;20060;-67
2022/10/22 12:16:33;;;;;;;13.32;8.23;;;;;;;;;;5071628;28;20053;-66
2022/10/22 12:19:39;;;;;;;8.40;7.60;;;;;;;;;;5069961;28;20412;-67
2022/10/22 12:22:44;;;;;;;9.73;7.45;;;;;;;;;;5071362;28;20036;-67
2022/10/22 12:25:48;;;;;;;12.20;8.38;;;;;;;;;;5071668;28;20036;-66
2022/10/22 12:28:59;;;;;;;8.88;7.22;;;;;;;;;;5071627;28;20032;-67
2022/10/22 12:32:04;;;;;;;9.60;8.30;;;;;;;;;;5070441;28;20357;-66
2022/10/22 12:35:14;;;;;;;8.48;7.63;;;;;;;;;;5071346;28;20048;-67
2022/10/22 12:38:19;;;;;;;10.23;7.50;;;;;;;;;;5070931;28;20033;-67
2022/10/22 12:41:30;;;;;;;9.98;8.05;;;;;;;;;;5071213;28;20040;-67
2022/10/22 12:44:35;;;;;;;9.73;7.45;;;;;;;;;;5071433;28;20365;-68
2022/10/22 12:47:39;;;;;;;8.32;7.43;;;;;;;;;;5070055;28;20037;-67
2022/10/22 12:51:05;;;;;;;13.43;8.05;;;;;;;;;;5071028;28;20041;-67
2022/10/22 12:54:14;;;;;;;9.85;8.18;;;;;;;;;;5071349;28;20049;-67
2022/10/22 12:57:19;;;;;;;11.73;8.70;;;;;;;;;;5070997;28;20032;-68
2022/10/22 13:00:26;;;;;;;16.33;8.68;;;;;;;;;;5071740;28;20040;-68
2022/10/22 13:03:33;;;;;;;15.25;8.65;;;;;;;;;;5070993;28;20040;-68
2022/10/22 13:06:43;;;;;;;12.63;9.32;;;;;;;;;;5068940;28;20029;-68
2022/10/22 13:09:56;;;;;;;9.93;7.53;;;;;;;;;;5071019;28;20036;-68
2022/10/22 13:13:02;;;;;;;8.68;7.20;;;;;;;;;;5071307;28;20468;-68
2022/10/22 13:16:23;;;;;;;8.73;7.68;;;;;;;;;;5070858;28;20045;-67
2022/10/22 13:19:39;;;;;;;10.93;8.13;;;;;;;;;;5071303;28;20492;-67
2022/10/22 13:22:54;;;;;;;12.43;8.63;;;;;;;;;;5070773;28;20526;-67
2022/10/22 13:26:13;;;;;;;9.75;7.90;;;;;;;;;;5070993;28;20037;-67
2022/10/22 13:29:18;;;;;;;9.52;7.40;;;;;;;;;;5070846;28;20388;-67
2022/10/22 13:32:28;;;;;;;10.35;7.40;;;;;;;;;;5071242;28;20048;-67
2022/10/22 13:35:34;;;;;;;12.63;7.97;;;;;;;;;;5070667;28;20044;-67
2022/10/22 13:38:39;;;;;;;9.20;7.82;;;;;;;;;;5071146;28;20048;-67
2022/10/22 13:41:43;;;;;;;8.30;6.78;;;;;;;;;;5071005;28;20040;-72
2022/10/22 13:44:48;;;;;;;9.80;7.28;;;;;;;;;;5068433;28;20040;-67
2022/10/22 13:47:53;;;;;;;12.15;7.80;;;;;;;;;;5067866;28;20041;-67
2022/10/22 13:50:58;;;;;;;8.13;7.32;;;;;;;;;;5070502;28;20503;-67
2022/10/22 13:54:06;;;;;;;8.00;7.20;;;;;;;;;;5070131;28;20040;-66
2022/10/22 13:57:11;;;;;;;8.93;6.72;;;;;;;;;;5069296;28;20488;-68
2022/10/22 14:00:16;;;;;;;18.05;8.63;;;;;;;;;;5070328;28;20036;-67
2022/10/22 14:03:23;;;;;;;9.30;8.18;;;;;;;;;;5071923;28;20508;-68
2022/10/22 14:06:32;;;;;;;7.72;6.88;;;;;;;;;;5073813;28;20036;-67
2022/10/22 14:09:36;;;;;;;9.05;7.38;;;;;;;;;;5073779;28;20037;-68
2022/10/22 14:12:41;;;;;;;11.02;7.38;;;;;;;;;;5074656;28;20036;-68
2022/10/22 14:15:46;;;;;;;14.02;8.52;;;;;;;;;;5073627;28;20052;-68
2022/10/22 14:18:50;;;;;;;10.10;8.27;;;;;;;;;;5073841;28;20091;-68
2022/10/22 14:21:54;;;;;;;12.77;9.20;;;;;;;;;;5073670;28;20501;-68
2022/10/22 14:24:59;;;;;;;12.32;8.38;;;;;;;;;;5073571;28;20037;-68
2022/10/22 14:28:04;;;;;;;11.65;8.30;;;;;;;;;;5061088;28;20437;-67
2022/10/22 14:31:09;;;;;;;18.23;8.93;;;;;;;;;;5071857;28;20436;-67
2022/10/22 14:34:14;;;;;;;14.55;9.68;;;;;;;;;;5076254;28;20040;-77
2022/10/22 14:37:20;;;;;;;19.88;10.70;;;;;;;;;;5076053;28;20036;-77
2022/10/22 14:40:24;;;;;;;13.35;9.80;;;;;;;;;;5073973;28;20503;-77
2022/10/22 14:43:29;;;;;;;17.00;9.50;;;;;;;;;;5076587;28;20044;-76
2022/10/22 14:46:34;;;;;;;13.90;9.32;;;;;;;;;;5074985;28;20037;-77
2022/10/22 14:49:38;;;;;;;13.35;8.95;;;;;;;;;;5077149;28;20025;-77
2022/10/22 14:52:50;;;;;;;16.30;10.00;;;;;;;;;;5077040;28;20392;-77
2022/10/22 14:55:57;;;;;;;11.20;8.98;;;;;;;;;;5074551;28;20059;-77
2022/10/22 14:59:02;;;;;;;14.90;9.25;;;;;;;;;;5076554;28;20039;-77
2022/10/22 15:02:06;;;;;;;15.90;9.32;;;;;;;;;;5074847;28;20044;-77
2022/10/22 15:05:10;;;;;;;16.92;10.18;;;;;;;;;;5075325;28;20044;-77
2022/10/22 15:08:15;;;;;;;16.45;9.93;;;;;;;;;;5073548;28;20051;-77
2022/10/22 15:11:21;;;;;;;11.60;9.68;;;;;;;;;;5074390;28;20041;-77
2022/10/22 15:14:25;;;;;;;15.48;8.90;;;;;;;;;;5073563;28;20046;-77
2022/10/22 15:17:29;;;;;;;11.52;9.27;;;;;;;;;;5061751;28;20526;-77
2022/10/22 15:20:33;;;;;;;14.63;9.93;;;;;;;;;;5075751;28;20049;-77
2022/10/22 15:23:39;;;;;;;13.35;9.60;;;;;;;;;;5073313;28;20502;-76
2022/10/22 15:26:43;;;;;;;54.22;32.90;;;;;;;;;;5075256;28;20037;-77
2022/10/22 15:29:47;;;;;;;39.40;19.98;;;;;;;;;;5073418;28;20044;-77
2022/10/22 15:32:52;;;;;;;17.60;12.23;;;;;;;;;;5074716;28;20036;-76
2022/10/22 15:35:57;;;;;;;18.27;11.18;;;;;;;;;;5072083;28;20051;-76
2022/10/22 15:39:05;;;;;;;16.75;12.38;;;;;;;;;;5073915;28;20039;-76
2022/10/22 15:42:09;;;;;;;15.75;11.20;;;;;;;;;;5073892;28;20043;-76
2022/10/22 15:45:14;;;;;;;14.38;11.32;;;;;;;;;;5075907;28;20043;-76
2022/10/22 15:48:20;;;;;;;14.68;11.25;;;;;;;;;;5075099;28;20384;-75
2022/10/22 15:51:25;;;;;;;19.85;12.32;;;;;;;;;;5074719;28;20055;-76
2022/10/22 15:54:29;;;;;;;17.13;11.55;;;;;;;;;;5073021;28;20047;-77
2022/10/22 15:57:34;;;;;;;20.13;12.20;;;;;;;;;;5075821;28;20554;-78
2022/10/22 16:00:38;;;;;;;18.45;14.00;;;;;;;;;;5074016;28;20051;-77
2022/10/22 16:03:42;;;;;;;17.17;12.82;;;;;;;;;;5072547;28;20039;-78
2022/10/22 16:06:51;;;;;;;26.58;15.93;;;;;;;;;;5073023;28;20654;-77
2022/10/22 16:10:01;;;;;;;19.58;14.75;;;;;;;;;;5073028;28;20534;-77
2022/10/22 16:13:06;;;;;;;23.80;15.00;;;;;;;;;;5073026;28;20039;-77
2022/10/22 16:16:10;;;;;;;25.00;15.48;;;;;;;;;;5072445;28;20075;-76
2022/10/22 16:19:16;;;;;;;19.60;13.75;;;;;;;;;;5072970;28;20048;-77
2022/10/22 16:22:20;;;;;;;18.15;15.35;;;;;;;;;;5072386;28;20048;-77
2022/10/22 16:25:24;;;;;;;26.05;16.35;;;;;;;;;;5072265;28;20046;-78
2022/10/22 16:28:28;;;;;;;22.83;15.20;;;;;;;;;;5073490;28;20060;-78
2022/10/22 16:31:33;;;;;;;25.77;16.05;;;;;;;;;;5073397;28;20119;-78
2022/10/22 16:34:37;;;;;;;20.60;15.52;;;;;;;;;;5072630;28;20048;-77
2022/10/22 16:37:42;;;;;;;27.08;16.85;;;;;;;;;;5073352;28;20298;-78
2022/10/22 16:40:46;;;;;;;22.70;17.55;;;;;;;;;;5072936;28;20074;-78
2022/10/22 16:43:51;;;;;;;25.38;17.17;;;;;;;;;;5071200;28;20052;-78
2022/10/22 16:46:56;;;;;;;24.00;18.13;;;;;;;;;;5073413;28;20044;-78
2022/10/22 16:50:00;;;;;;;26.35;17.98;;;;;;;;;;5071932;28;20044;-78
2022/10/22 16:53:05;;;;;;;22.15;17.05;;;;;;;;;;5073104;28;20040;-78
2022/10/22 16:56:10;;;;;;;24.33;18.88;;;;;;;;;;5073620;28;20559;-78
2022/10/22 16:59:14;;;;;;;32.70;18.85;;;;;;;;;;5073783;28;20040;-78
2022/10/22 17:02:18;;;;;;;25.10;18.27;;;;;;;;;;5070023;28;20534;-77
2022/10/22 17:05:23;;;;;;;24.77;18.70;;;;;;;;;;5071176;28;20047;-77
2022/10/22 17:08:27;;;;;;;30.65;19.60;;;;;;;;;;5071437;28;20084;-77
2022/10/22 17:11:33;;;;;;;31.08;20.52;;;;;;;;;;5071777;28;20043;-77
2022/10/22 17:14:38;;;;;;;26.88;20.73;;;;;;;;;;5072027;28;20052;-77
2022/10/22 17:17:47;;;;;;;27.25;21.50;;;;;;;;;;5073282;28;20040;-77
2022/10/22 17:20:51;;;;;;;29.83;22.17;;;;;;;;;;5059833;28;20531;-77
2022/10/22 17:23:56;;;;;;;30.77;21.38;;;;;;;;;;5071631;28;20047;-77
2022/10/22 17:27:01;;;;;;;32.78;21.33;;;;;;;;;;5071906;28;20048;-77
2022/10/22 17:30:06;;;;;;;29.38;22.80;;;;;;;;;;5071439;28;20294;-77
2022/10/22 17:33:10;;;;;;;38.20;22.98;;;;;;;;;;5071986;28;20039;-77
2022/10/22 17:36:14;;;;;;;38.00;24.15;;;;;;;;;;5071884;28;20051;-76
2022/10/22 17:39:19;;;;;;;31.48;23.10;;;;;;;;;;5077582;28;20047;-76
2022/10/22 17:42:24;;;;;;;41.08;24.13;;;;;;;;;;5064402;28;20436;-77
2022/10/22 17:45:28;;;;;;;37.63;24.23;;;;;;;;;;5076034;28;20048;-76
2022/10/22 17:48:32;;;;;;;35.83;24.98;;;;;;;;;;5075769;28;20048;-77
2022/10/22 17:51:36;;;;;;;41.53;25.65;;;;;;;;;;5075650;28;20039;-77
2022/10/22 17:54:41;;;;;;;28.60;23.05;;;;;;;;;;5075903;28;20051;-77
2022/10/22 17:57:46;;;;;;;29.60;23.33;;;;;;;;;;5075300;28;20068;-76
2022/10/22 18:00:50;;;;;;;40.55;24.67;;;;;;;;;;5074884;28;20044;-76
2022/10/22 18:03:58;;;;;;;33.15;24.92;;;;;;;;;;5076029;28;20039;-76
2022/10/22 18:07:02;;;;;;;42.55;25.92;;;;;;;;;;5076532;28;20044;-76
2022/10/22 18:10:07;;;;;;;40.95;25.33;;;;;;;;;;5076163;28;20048;-76
2022/10/22 18:13:11;;;;;;;34.60;25.77;;;;;;;;;;5075009;28;20361;-76